sensor_id;sensor_type;location;lat;lon;timestamp;pressure;altitude;pressure_sealevel;temperature;humidity
53262;BME280;39658;51.090;-1.786;2023-02-03T00:02:17;102247.19;;;22.36;44.89
53262;BME280;39658;51.090;-1.786;2023-02-03T00:04:45;102247.78;;;22.31;44.74
53262;BME280;39658;51.090;-1.786;2023-02-03T00:07:12;102253.59;;;22.28;44.85
53262;BME280;39658;51.090;-1.786;2023-02-03T00:09:40;102256.69;;;22.25;44.88
53262;BME280;39658;51.090;-1.786;2023-02-03T00:12:08;102264.38;;;22.22;44.87
53262;BME280;39658;51.090;-1.786;2023-02-03T00:14:35;102278.31;;;22.18;44.92
53262;BME280;39658;51.090;-1.786;2023-02-03T00:17:02;102282.25;;;22.16;45.00
53262;BME280;39658;51.090;-1.786;2023-02-03T00:19:29;102283.69;;;22.12;44.96
53262;BME280;39658;51.090;-1.786;2023-02-03T00:21:57;102288.47;;;22.10;45.06
53262;BME280;39658;51.090;-1.786;2023-02-03T00:24:24;102286.97;;;22.07;45.07
53262;BME280;39658;51.090;-1.786;2023-02-03T00:26:51;102278.19;;;22.05;45.12
53262;BME280;39658;51.090;-1.786;2023-02-03T00:29:18;102264.31;;;22.00;45.17
53262;BME280;39658;51.090;-1.786;2023-02-03T00:31:49;102254.69;;;21.98;45.22
53262;BME280;39658;51.090;-1.786;2023-02-03T00:34:16;102251.53;;;21.94;45.27
53262;BME280;39658;51.090;-1.786;2023-02-03T00:36:42;102262.75;;;21.91;45.24
53262;BME280;39658;51.090;-1.786;2023-02-03T00:39:12;102253.97;;;21.89;45.38
53262;BME280;39658;51.090;-1.786;2023-02-03T00:41:39;102264.19;;;21.87;45.30
53262;BME280;39658;51.090;-1.786;2023-02-03T00:44:06;102270.81;;;21.84;45.53
53262;BME280;39658;51.090;-1.786;2023-02-03T00:46:33;102275.59;;;21.82;45.49
53262;BME280;39658;51.090;-1.786;2023-02-03T00:49:00;102274.31;;;21.78;45.48
53262;BME280;39658;51.090;-1.786;2023-02-03T00:51:27;102269.06;;;21.77;45.47
53262;BME280;39658;51.090;-1.786;2023-02-03T00:53:54;102263.84;;;21.75;45.47
53262;BME280;39658;51.090;-1.786;2023-02-03T00:56:22;102263.38;;;21.72;45.57
53262;BME280;39658;51.090;-1.786;2023-02-03T00:58:49;102257.31;;;21.70;45.55
53262;BME280;39658;51.090;-1.786;2023-02-03T01:01:16;102243.31;;;21.66;45.59
53262;BME280;39658;51.090;-1.786;2023-02-03T01:03:43;102252.47;;;21.65;45.57
53262;BME280;39658;51.090;-1.786;2023-02-03T01:06:12;102251.00;;;21.63;45.72
53262;BME280;39658;51.090;-1.786;2023-02-03T01:08:40;102266.56;;;21.61;45.72
53262;BME280;39658;51.090;-1.786;2023-02-03T01:11:08;102268.81;;;21.57;45.66
53262;BME280;39658;51.090;-1.786;2023-02-03T01:13:36;102262.75;;;21.55;45.78
53262;BME280;39658;51.090;-1.786;2023-02-03T01:16:06;102258.53;;;21.52;45.68
53262;BME280;39658;51.090;-1.786;2023-02-03T01:18:33;102253.50;;;21.49;45.76
53262;BME280;39658;51.090;-1.786;2023-02-03T01:21:04;102247.44;;;21.47;45.86
53262;BME280;39658;51.090;-1.786;2023-02-03T01:23:31;102239.50;;;21.46;45.83
53262;BME280;39658;51.090;-1.786;2023-02-03T01:26:02;102239.88;;;21.43;45.80
53262;BME280;39658;51.090;-1.786;2023-02-03T01:28:29;102244.47;;;21.42;45.87
53262;BME280;39658;51.090;-1.786;2023-02-03T01:31:07;102239.44;;;21.39;45.87
53262;BME280;39658;51.090;-1.786;2023-02-03T01:33:35;102237.94;;;21.37;45.91
53262;BME280;39658;51.090;-1.786;2023-02-03T01:36:05;102246.25;;;21.35;45.90
53262;BME280;39658;51.090;-1.786;2023-02-03T01:38:32;102236.63;;;21.33;46.00
53262;BME280;39658;51.090;-1.786;2023-02-03T01:40:59;102243.28;;;21.30;45.90
53262;BME280;39658;51.090;-1.786;2023-02-03T01:43:30;102226.38;;;21.28;46.10
53262;BME280;39658;51.090;-1.786;2023-02-03T01:46:01;102238.25;;;21.27;46.00
53262;BME280;39658;51.090;-1.786;2023-02-03T01:48:30;102233.84;;;21.26;45.94
53262;BME280;39658;51.090;-1.786;2023-02-03T01:50:59;102239.66;;;21.23;46.06
53262;BME280;39658;51.090;-1.786;2023-02-03T01:53:28;102231.69;;;21.21;46.00
53262;BME280;39658;51.090;-1.786;2023-02-03T01:55:55;102233.69;;;21.19;46.14
53262;BME280;39658;51.090;-1.786;2023-02-03T01:58:25;102227.44;;;21.19;46.16
53262;BME280;39658;51.090;-1.786;2023-02-03T02:00:54;102228.66;;;21.16;46.24
53262;BME280;39658;51.090;-1.786;2023-02-03T02:03:30;102222.41;;;21.16;46.19
53262;BME280;39658;51.090;-1.786;2023-02-03T02:06:01;102219.88;;;21.14;46.19
53262;BME280;39658;51.090;-1.786;2023-02-03T02:08:30;102217.56;;;21.11;46.26
53262;BME280;39658;51.090;-1.786;2023-02-03T02:10:57;102225.69;;;21.11;46.26
53262;BME280;39658;51.090;-1.786;2023-02-03T02:13:25;102214.19;;;21.09;46.17
53262;BME280;39658;51.090;-1.786;2023-02-03T02:15:57;102214.59;;;21.06;46.24
53262;BME280;39658;51.090;-1.786;2023-02-03T02:18:36;102214.59;;;21.06;46.22
53262;BME280;39658;51.090;-1.786;2023-02-03T02:21:37;102213.09;;;21.04;46.31
53262;BME280;39658;51.090;-1.786;2023-02-03T02:24:42;102203.47;;;21.01;46.36
53262;BME280;39658;51.090;-1.786;2023-02-03T02:33:25;102220.47;;;20.95;46.48
53262;BME280;39658;51.090;-1.786;2023-02-03T02:36:03;102229.63;;;20.94;46.22
53262;BME280;39658;51.090;-1.786;2023-02-03T02:38:40;102224.38;;;20.92;46.40
53262;BME280;39658;51.090;-1.786;2023-02-03T02:41:15;102222.72;;;20.91;46.17
53262;BME280;39658;51.090;-1.786;2023-02-03T02:43:48;102212.06;;;20.90;46.60
53262;BME280;39658;51.090;-1.786;2023-02-03T02:46:23;102217.66;;;20.88;46.31
53262;BME280;39658;51.090;-1.786;2023-02-03T02:48:56;102219.72;;;20.86;46.42
53262;BME280;39658;51.090;-1.786;2023-02-03T02:51:25;102220.09;;;20.83;46.48
53262;BME280;39658;51.090;-1.786;2023-02-03T02:53:56;102221.97;;;20.83;46.39
53262;BME280;39658;51.090;-1.786;2023-02-03T02:56:24;102232.09;;;20.81;46.41
53262;BME280;39658;51.090;-1.786;2023-02-03T02:58:53;102230.59;;;20.78;46.41
53262;BME280;39658;51.090;-1.786;2023-02-03T03:01:22;102227.25;;;20.76;46.55
53262;BME280;39658;51.090;-1.786;2023-02-03T03:03:49;102222.03;;;20.75;46.60
53262;BME280;39658;51.090;-1.786;2023-02-03T03:06:22;102224.06;;;20.73;46.58
53262;BME280;39658;51.090;-1.786;2023-02-03T03:08:53;102227.81;;;20.72;46.51
53262;BME280;39658;51.090;-1.786;2023-02-03T03:11:22;102225.47;;;20.69;46.57
53262;BME280;39658;51.090;-1.786;2023-02-03T03:13:52;102230.22;;;20.67;46.68
53262;BME280;39658;51.090;-1.786;2023-02-03T03:16:23;102234.13;;;20.64;46.57
53262;BME280;39658;51.090;-1.786;2023-02-03T03:18:52;102233.31;;;20.63;46.71
53262;BME280;39658;51.090;-1.786;2023-02-03T03:21:25;102222.66;;;20.62;46.68
53262;BME280;39658;51.090;-1.786;2023-02-03T03:23:56;102222.00;;;20.60;46.77
53262;BME280;39658;51.090;-1.786;2023-02-03T03:26:29;102228.63;;;20.57;46.67
53262;BME280;39658;51.090;-1.786;2023-02-03T03:29:04;102229.66;;;20.56;46.58
53262;BME280;39658;51.090;-1.786;2023-02-03T03:31:32;102221.72;;;20.55;46.71
53262;BME280;39658;51.090;-1.786;2023-02-03T03:33:59;102223.78;;;20.53;46.71
53262;BME280;39658;51.090;-1.786;2023-02-03T03:36:30;102226.66;;;20.51;46.77
53262;BME280;39658;51.090;-1.786;2023-02-03T03:39:02;102223.13;;;20.51;46.64
53262;BME280;39658;51.090;-1.786;2023-02-03T03:41:37;102227.88;;;20.49;46.60
53262;BME280;39658;51.090;-1.786;2023-02-03T03:44:09;102219.94;;;20.47;46.77
53262;BME280;39658;51.090;-1.786;2023-02-03T03:46:41;102220.97;;;20.46;46.70
53262;BME280;39658;51.090;-1.786;2023-02-03T03:49:11;102234.66;;;20.45;46.82
53262;BME280;39658;51.090;-1.786;2023-02-03T03:51:43;102228.41;;;20.44;46.72
53262;BME280;39658;51.090;-1.786;2023-02-03T03:54:14;102235.88;;;20.42;46.55
53262;BME280;39658;51.090;-1.786;2023-02-03T03:56:46;102231.47;;;20.41;46.61
53262;BME280;39658;51.090;-1.786;2023-02-03T03:59:15;102233.47;;;20.39;46.81
53262;BME280;39658;51.090;-1.786;2023-02-03T04:01:46;102242.59;;;20.38;46.69
53262;BME280;39658;51.090;-1.786;2023-02-03T04:04:15;102231.13;;;20.36;46.68
53262;BME280;39658;51.090;-1.786;2023-02-03T04:06:43;102240.09;;;20.37;46.66
53262;BME280;39658;51.090;-1.786;2023-02-03T04:09:10;102238.41;;;20.35;46.58
53262;BME280;39658;51.090;-1.786;2023-02-03T04:11:37;102244.00;;;20.34;46.92
53262;BME280;39658;51.090;-1.786;2023-02-03T04:14:21;102236.06;;;20.32;46.75
53262;BME280;39658;51.090;-1.786;2023-02-03T04:16:48;102242.50;;;20.31;46.70
53262;BME280;39658;51.090;-1.786;2023-02-03T04:19:14;102231.03;;;20.29;46.82
53262;BME280;39658;51.090;-1.786;2023-02-03T04:21:43;102235.41;;;20.30;46.82
53262;BME280;39658;51.090;-1.786;2023-02-03T04:24:10;102245.56;;;20.28;46.69
53262;BME280;39658;51.090;-1.786;2023-02-03T04:26:37;102251.16;;;20.27;46.86
53262;BME280;39658;51.090;-1.786;2023-02-03T04:29:05;102259.28;;;20.27;46.77
53262;BME280;39658;51.090;-1.786;2023-02-03T04:31:32;102260.47;;;20.24;46.88
53262;BME280;39658;51.090;-1.786;2023-02-03T04:33:59;102263.19;;;20.24;47.01
53262;BME280;39658;51.090;-1.786;2023-02-03T04:36:25;102257.09;;;20.22;46.74
53262;BME280;39658;51.090;-1.786;2023-02-03T04:38:53;102259.81;;;20.22;46.92
53262;BME280;39658;51.090;-1.786;2023-02-03T04:41:20;102264.56;;;20.20;46.67
53262;BME280;39658;51.090;-1.786;2023-02-03T04:43:47;102268.28;;;20.19;46.64
53262;BME280;39658;51.090;-1.786;2023-02-03T04:46:14;102268.47;;;20.18;46.73
53262;BME280;39658;51.090;-1.786;2023-02-03T04:48:42;102272.00;;;20.18;46.79
53262;BME280;39658;51.090;-1.786;2023-02-03T04:51:09;102276.75;;;20.16;46.61
53262;BME280;39658;51.090;-1.786;2023-02-03T04:53:36;102277.78;;;20.15;46.74
53262;BME280;39658;51.090;-1.786;2023-02-03T04:56:05;102280.84;;;20.12;46.83
53262;BME280;39658;51.090;-1.786;2023-02-03T04:58:31;102292.50;;;20.13;46.70
53262;BME280;39658;51.090;-1.786;2023-02-03T05:01:05;102284.56;;;20.11;46.55
53262;BME280;39658;51.090;-1.786;2023-02-03T05:03:33;102288.47;;;20.09;46.62
53262;BME280;39658;51.090;-1.786;2023-02-03T05:06:00;102293.88;;;20.09;46.86
53262;BME280;39658;51.090;-1.786;2023-02-03T05:08:27;102301.31;;;20.07;46.94
53262;BME280;39658;51.090;-1.786;2023-02-03T05:10:54;102297.78;;;20.06;46.83
53262;BME280;39658;51.090;-1.786;2023-02-03T05:13:23;102297.13;;;20.04;46.88
53262;BME280;39658;51.090;-1.786;2023-02-03T05:15:49;102296.28;;;20.03;46.98
53262;BME280;39658;51.090;-1.786;2023-02-03T05:18:16;102302.69;;;20.02;46.70
53262;BME280;39658;51.090;-1.786;2023-02-03T05:20:43;102304.56;;;20.02;47.06
53262;BME280;39658;51.090;-1.786;2023-02-03T05:23:10;102294.91;;;19.99;46.93
53262;BME280;39658;51.090;-1.786;2023-02-03T05:25:37;102294.06;;;19.99;46.67
53262;BME280;39658;51.090;-1.786;2023-02-03T05:28:03;102295.94;;;19.98;46.84
53262;BME280;39658;51.090;-1.786;2023-02-03T05:30:32;102297.78;;;19.98;47.07
53262;BME280;39658;51.090;-1.786;2023-02-03T05:32:58;102296.13;;;19.97;46.84
53262;BME280;39658;51.090;-1.786;2023-02-03T05:35:25;102298.16;;;19.95;46.86
53262;BME280;39658;51.090;-1.786;2023-02-03T05:37:52;102293.78;;;19.94;46.94
53262;BME280;39658;51.090;-1.786;2023-02-03T05:40:19;102305.59;;;19.93;46.93
53262;BME280;39658;51.090;-1.786;2023-02-03T05:43:03;102306.63;;;19.92;47.06
53262;BME280;39658;51.090;-1.786;2023-02-03T05:45:31;102301.41;;;19.90;46.75
53262;BME280;39658;51.090;-1.786;2023-02-03T05:47:58;102306.97;;;19.89;47.09
53262;BME280;39658;51.090;-1.786;2023-02-03T05:50:27;102304.44;;;19.87;47.02
53262;BME280;39658;51.090;-1.786;2023-02-03T05:52:57;102314.41;;;19.87;46.96
53262;BME280;39658;51.090;-1.786;2023-02-03T05:55:24;102311.06;;;19.85;47.16
53262;BME280;39658;51.090;-1.786;2023-02-03T05:57:51;102318.50;;;19.83;46.81
53262;BME280;39658;51.090;-1.786;2023-02-03T06:00:19;102330.16;;;19.83;47.06
53262;BME280;39658;51.090;-1.786;2023-02-03T06:02:51;102325.09;;;19.80;47.08
53262;BME280;39658;51.090;-1.786;2023-02-03T06:05:18;102333.19;;;19.80;46.99
53262;BME280;39658;51.090;-1.786;2023-02-03T06:07:45;102326.94;;;19.80;47.05
53262;BME280;39658;51.090;-1.786;2023-02-03T06:10:13;102329.66;;;19.80;47.02
53262;BME280;39658;51.090;-1.786;2023-02-03T06:12:40;102335.72;;;19.82;46.88
53262;BME280;39658;51.090;-1.786;2023-02-03T06:15:08;102339.56;;;19.87;46.84
53262;BME280;39658;51.090;-1.786;2023-02-03T06:17:35;102337.00;;;19.94;46.76
53262;BME280;39658;51.090;-1.786;2023-02-03T06:20:04;102348.63;;;20.02;46.51
53262;BME280;39658;51.090;-1.786;2023-02-03T06:22:31;102350.44;;;20.10;46.63
53262;BME280;39658;51.090;-1.786;2023-02-03T06:24:58;102349.19;;;20.21;46.36
53262;BME280;39658;51.090;-1.786;2023-02-03T06:27:24;102351.31;;;20.33;46.18
53262;BME280;39658;51.090;-1.786;2023-02-03T06:29:51;102353.47;;;20.46;45.95
53262;BME280;39658;51.090;-1.786;2023-02-03T06:32:18;102353.88;;;20.58;45.58
53262;BME280;39658;51.090;-1.786;2023-02-03T06:34:45;102347.03;;;20.70;45.41
53262;BME280;39658;51.090;-1.786;2023-02-03T06:37:13;102352.69;;;20.83;45.36
53262;BME280;39658;51.090;-1.786;2023-02-03T06:39:40;102352.91;;;20.96;45.01
53262;BME280;39658;51.090;-1.786;2023-02-03T06:42:07;102346.00;;;21.09;45.12
53262;BME280;39658;51.090;-1.786;2023-02-03T06:44:34;102350.97;;;21.20;44.87
53262;BME280;39658;51.090;-1.786;2023-02-03T06:47:01;102353.28;;;21.31;44.61
53262;BME280;39658;51.090;-1.786;2023-02-03T06:49:28;102349.91;;;21.44;44.50
53262;BME280;39658;51.090;-1.786;2023-02-03T06:51:55;102349.25;;;21.56;44.11
53262;BME280;39658;51.090;-1.786;2023-02-03T06:54:23;102353.38;;;21.67;44.20
53262;BME280;39658;51.090;-1.786;2023-02-03T06:56:50;102344.75;;;21.78;43.90
53262;BME280;39658;51.090;-1.786;2023-02-03T06:59:17;102351.56;;;21.89;43.77
53262;BME280;39658;51.090;-1.786;2023-02-03T07:01:44;102354.81;;;21.99;43.65
53262;BME280;39658;51.090;-1.786;2023-02-03T07:04:11;102362.50;;;22.10;43.52
53262;BME280;39658;51.090;-1.786;2023-02-03T07:06:38;102358.00;;;22.17;43.42
53262;BME280;39658;51.090;-1.786;2023-02-03T07:09:05;102363.09;;;22.27;43.43
53262;BME280;39658;51.090;-1.786;2023-02-03T07:11:33;102367.38;;;22.36;43.35
53262;BME280;39658;51.090;-1.786;2023-02-03T07:14:00;102378.13;;;22.44;43.17
53262;BME280;39658;51.090;-1.786;2023-02-03T07:16:27;102377.16;;;22.52;42.88
53262;BME280;39658;51.090;-1.786;2023-02-03T07:18:55;102385.56;;;22.57;42.89
53262;BME280;39658;51.090;-1.786;2023-02-03T07:21:23;102384.97;;;22.62;42.94
53262;BME280;39658;51.090;-1.786;2023-02-03T07:23:49;102382.91;;;22.64;42.95
53262;BME280;39658;51.090;-1.786;2023-02-03T07:26:17;102392.72;;;22.65;42.69
53262;BME280;39658;51.090;-1.786;2023-02-03T07:28:45;102387.28;;;22.65;42.81
53262;BME280;39658;51.090;-1.786;2023-02-03T07:31:12;102387.28;;;22.65;42.88
53262;BME280;39658;51.090;-1.786;2023-02-03T07:33:38;102390.19;;;22.63;42.86
53262;BME280;39658;51.090;-1.786;2023-02-03T07:36:06;102391.44;;;22.61;42.89
53262;BME280;39658;51.090;-1.786;2023-02-03T07:38:33;102392.47;;;22.60;42.81
53262;BME280;39658;51.090;-1.786;2023-02-03T07:41:02;102395.56;;;22.57;43.00
53262;BME280;39658;51.090;-1.786;2023-02-03T07:43:29;102401.38;;;22.54;43.10
53262;BME280;39658;51.090;-1.786;2023-02-03T07:45:57;102401.78;;;22.50;43.14
53262;BME280;39658;51.090;-1.786;2023-02-03T07:48:26;102408.41;;;22.48;43.05
53262;BME280;39658;51.090;-1.786;2023-02-03T07:50:53;102409.44;;;22.47;42.97
53262;BME280;39658;51.090;-1.786;2023-02-03T07:53:19;102415.91;;;22.46;43.55
53262;BME280;39658;51.090;-1.786;2023-02-03T07:55:46;102426.56;;;22.47;43.58
53262;BME280;39658;51.090;-1.786;2023-02-03T07:58:13;102420.75;;;22.50;44.33
53262;BME280;39658;51.090;-1.786;2023-02-03T08:00:41;102430.19;;;22.55;44.02
53262;BME280;39658;51.090;-1.786;2023-02-03T08:03:10;102434.41;;;22.57;44.16
53262;BME280;39658;51.090;-1.786;2023-02-03T08:05:36;102436.53;;;22.62;43.96
53262;BME280;39658;51.090;-1.786;2023-02-03T08:08:04;102431.38;;;22.67;43.54
53262;BME280;39658;51.090;-1.786;2023-02-03T08:10:30;102432.28;;;22.74;43.80
53262;BME280;39658;51.090;-1.786;2023-02-03T08:12:57;102433.38;;;22.79;43.72
53262;BME280;39658;51.090;-1.786;2023-02-03T08:15:24;102429.28;;;22.84;43.50
53262;BME280;39658;51.090;-1.786;2023-02-03T08:17:51;102446.03;;;22.87;43.34
53262;BME280;39658;51.090;-1.786;2023-02-03T08:20:19;102442.28;;;22.88;43.49
53262;BME280;39658;51.090;-1.786;2023-02-03T08:22:46;102451.91;;;22.91;43.36
53262;BME280;39658;51.090;-1.786;2023-02-03T08:25:13;102458.19;;;22.91;43.37
53262;BME280;39658;51.090;-1.786;2023-02-03T08:27:40;102465.47;;;22.91;43.12
53262;BME280;39658;51.090;-1.786;2023-02-03T08:30:09;102461.09;;;22.90;43.49
53262;BME280;39658;51.090;-1.786;2023-02-03T08:32:37;102466.91;;;22.87;43.51
53262;BME280;39658;51.090;-1.786;2023-02-03T08:35:04;102465.22;;;22.86;43.38
53262;BME280;39658;51.090;-1.786;2023-02-03T08:37:33;102470.66;;;22.86;43.36
53262;BME280;39658;51.090;-1.786;2023-02-03T08:39:59;102469.81;;;22.85;43.33
53262;BME280;39658;51.090;-1.786;2023-02-03T08:42:26;102473.56;;;22.84;43.15
53262;BME280;39658;51.090;-1.786;2023-02-03T08:44:53;102463.53;;;22.85;43.31
53262;BME280;39658;51.090;-1.786;2023-02-03T08:47:20;102464.59;;;22.84;43.26
53262;BME280;39658;51.090;-1.786;2023-02-03T08:49:47;102459.50;;;22.80;43.36
53262;BME280;39658;51.090;-1.786;2023-02-03T08:52:14;102464.25;;;22.78;43.41
53262;BME280;39658;51.090;-1.786;2023-02-03T08:54:42;102463.16;;;22.73;43.51
53262;BME280;39658;51.090;-1.786;2023-02-03T08:57:09;102469.81;;;22.70;43.78
53262;BME280;39658;51.090;-1.786;2023-02-03T08:59:37;102483.97;;;22.66;43.66
53262;BME280;39658;51.090;-1.786;2023-02-03T09:02:06;102473.69;;;22.61;43.80
53262;BME280;39658;51.090;-1.786;2023-02-03T09:04:34;102479.50;;;22.58;43.79
53262;BME280;39658;51.090;-1.786;2023-02-03T09:07:01;102477.16;;;22.55;43.85
53262;BME280;39658;51.090;-1.786;2023-02-03T09:09:29;102479.41;;;22.51;43.78
53262;BME280;39658;51.090;-1.786;2023-02-03T09:11:57;102480.66;;;22.49;43.86
53262;BME280;39658;51.090;-1.786;2023-02-03T09:14:27;102481.03;;;22.46;44.03
53262;BME280;39658;51.090;-1.786;2023-02-03T09:16:54;102487.69;;;22.43;44.02
53262;BME280;39658;51.090;-1.786;2023-02-03T09:19:21;102495.31;;;22.40;44.18
53262;BME280;39658;51.090;-1.786;2023-02-03T09:21:48;102497.38;;;22.38;44.20
53262;BME280;39658;51.090;-1.786;2023-02-03T09:24:15;102492.53;;;22.33;44.13
53262;BME280;39658;51.090;-1.786;2023-02-03T09:26:42;102484.97;;;22.29;44.37
53262;BME280;39658;51.090;-1.786;2023-02-03T09:29:10;102491.22;;;22.29;44.58
53262;BME280;39658;51.090;-1.786;2023-02-03T09:31:37;102506.00;;;22.27;44.75
53262;BME280;39658;51.090;-1.786;2023-02-03T09:34:04;102502.84;;;22.23;44.81
53262;BME280;39658;51.090;-1.786;2023-02-03T09:36:31;102489.84;;;22.18;44.97
53262;BME280;39658;51.090;-1.786;2023-02-03T09:38:58;102492.75;;;22.17;44.94
53262;BME280;39658;51.090;-1.786;2023-02-03T09:41:38;102497.69;;;22.13;44.92
53262;BME280;39658;51.090;-1.786;2023-02-03T09:44:16;102495.38;;;22.10;44.97
53262;BME280;39658;51.090;-1.786;2023-02-03T09:46:49;102509.31;;;22.07;44.96
53262;BME280;39658;51.090;-1.786;2023-02-03T09:49:23;102512.38;;;22.04;45.11
53262;BME280;39658;51.090;-1.786;2023-02-03T09:51:51;102512.53;;;22.03;45.08
53262;BME280;39658;51.090;-1.786;2023-02-03T09:54:25;102514.75;;;21.99;45.16
53262;BME280;39658;51.090;-1.786;2023-02-03T09:56:53;102518.88;;;21.95;45.16
53262;BME280;39658;51.090;-1.786;2023-02-03T09:59:21;102512.78;;;21.93;45.32
53262;BME280;39658;51.090;-1.786;2023-02-03T10:01:54;102521.47;;;21.88;45.29
53262;BME280;39658;51.090;-1.786;2023-02-03T10:04:30;102517.47;;;21.84;45.21
53262;BME280;39658;51.090;-1.786;2023-02-03T10:07:05;102535.97;;;21.81;45.40
53262;BME280;39658;51.090;-1.786;2023-02-03T10:09:44;102542.78;;;21.77;45.35
53262;BME280;39658;51.090;-1.786;2023-02-03T10:12:42;102550.44;;;21.73;45.30
53262;BME280;39658;51.090;-1.786;2023-02-03T10:15:40;102539.31;;;21.68;45.51
53262;BME280;39658;51.090;-1.786;2023-02-03T10:18:13;102551.53;;;21.64;45.41
53262;BME280;39658;51.090;-1.786;2023-02-03T10:20:44;102538.19;;;21.63;45.63
53262;BME280;39658;51.090;-1.786;2023-02-03T10:23:16;102547.34;;;21.62;45.52
53262;BME280;39658;51.090;-1.786;2023-02-03T10:25:47;102541.41;;;21.58;45.65
53262;BME280;39658;51.090;-1.786;2023-02-03T10:28:20;102556.34;;;21.54;45.59
53262;BME280;39658;51.090;-1.786;2023-02-03T10:30:53;102550.28;;;21.52;45.71
53262;BME280;39658;51.090;-1.786;2023-02-03T10:33:23;102562.31;;;21.49;45.64
53262;BME280;39658;51.090;-1.786;2023-02-03T10:35:53;102558.94;;;21.47;45.81
53262;BME280;39658;51.090;-1.786;2023-02-03T10:38:31;102557.25;;;21.46;45.93
53262;BME280;39658;51.090;-1.786;2023-02-03T10:41:01;102561.19;;;21.44;45.88
53262;BME280;39658;51.090;-1.786;2023-02-03T10:43:29;102559.69;;;21.41;45.89
53262;BME280;39658;51.090;-1.786;2023-02-03T10:46:19;102564.44;;;21.39;46.02
53262;BME280;39658;51.090;-1.786;2023-02-03T10:48:47;102559.19;;;21.38;46.09
53262;BME280;39658;51.090;-1.786;2023-02-03T10:51:19;102562.75;;;21.38;46.13
53262;BME280;39658;51.090;-1.786;2023-02-03T10:53:46;102556.00;;;21.34;46.06
53262;BME280;39658;51.090;-1.786;2023-02-03T10:56:19;102550.78;;;21.33;46.09
53262;BME280;39658;51.090;-1.786;2023-02-03T10:58:49;102549.28;;;21.30;46.05
53262;BME280;39658;51.090;-1.786;2023-02-03T11:01:19;102559.28;;;21.30;46.17
53262;BME280;39658;51.090;-1.786;2023-02-03T11:03:56;102571.31;;;21.27;46.17
53262;BME280;39658;51.090;-1.786;2023-02-03T11:06:23;102564.38;;;21.24;46.18
53262;BME280;39658;51.090;-1.786;2023-02-03T11:08:50;102568.13;;;21.23;46.27
53262;BME280;39658;51.090;-1.786;2023-02-03T11:11:23;102576.38;;;21.22;46.26
53262;BME280;39658;51.090;-1.786;2023-02-03T11:14:10;102569.44;;;21.19;46.21
53262;BME280;39658;51.090;-1.786;2023-02-03T11:16:39;102571.47;;;21.17;46.32
53262;BME280;39658;51.090;-1.786;2023-02-03T11:19:14;102558.13;;;21.16;46.30
53262;BME280;39658;51.090;-1.786;2023-02-03T11:21:45;102556.44;;;21.15;46.31
53262;BME280;39658;51.090;-1.786;2023-02-03T11:24:17;102561.84;;;21.15;46.34
53262;BME280;39658;51.090;-1.786;2023-02-03T11:26:48;102565.75;;;21.12;46.34
53262;BME280;39658;51.090;-1.786;2023-02-03T11:29:18;102557.81;;;21.11;46.34
53262;BME280;39658;51.090;-1.786;2023-02-03T11:31:51;102548.00;;;21.10;46.43
53262;BME280;39658;51.090;-1.786;2023-02-03T11:34:20;102540.06;;;21.08;46.44
53262;BME280;39658;51.090;-1.786;2023-02-03T11:36:50;102540.25;;;21.07;46.27
53262;BME280;39658;51.090;-1.786;2023-02-03T11:39:20;102538.56;;;21.06;46.69
53262;BME280;39658;51.090;-1.786;2023-02-03T11:41:49;102527.09;;;21.04;46.33
53262;BME280;39658;51.090;-1.786;2023-02-03T11:44:19;102538.94;;;21.03;46.46
53262;BME280;39658;51.090;-1.786;2023-02-03T11:46:49;102530.16;;;21.01;46.19
53262;BME280;39658;51.090;-1.786;2023-02-03T11:53:13;102525.94;;;20.98;46.45
53262;BME280;39658;51.090;-1.786;2023-02-03T11:56:05;102524.25;;;20.97;46.40
53262;BME280;39658;51.090;-1.786;2023-02-03T11:58:57;102513.59;;;20.95;46.51
53262;BME280;39658;51.090;-1.786;2023-02-03T12:02:07;102515.47;;;20.95;46.36
53262;BME280;39658;51.090;-1.786;2023-02-03T12:05:00;102527.31;;;20.94;46.38
53262;BME280;39658;51.090;-1.786;2023-02-03T12:07:45;102519.38;;;20.92;46.49
53262;BME280;39658;51.090;-1.786;2023-02-03T12:10:26;102523.94;;;20.92;46.45
53262;BME280;39658;51.090;-1.786;2023-02-03T12:12:57;102516.84;;;20.91;46.48
53262;BME280;39658;51.090;-1.786;2023-02-03T12:15:38;102515.16;;;20.90;46.66
53262;BME280;39658;51.090;-1.786;2023-02-03T12:18:24;102509.94;;;20.88;46.66
53262;BME280;39658;51.090;-1.786;2023-02-03T12:21:03;102509.09;;;20.88;46.55
53262;BME280;39658;51.090;-1.786;2023-02-03T12:23:41;102517.41;;;20.86;46.64
53262;BME280;39658;51.090;-1.786;2023-02-03T12:26:17;102516.56;;;20.86;46.59
53262;BME280;39658;51.090;-1.786;2023-02-03T12:28:55;102519.44;;;20.84;46.69
53262;BME280;39658;51.090;-1.786;2023-02-03T12:31:29;102515.03;;;20.83;46.68
53262;BME280;39658;51.090;-1.786;2023-02-03T12:34:07;102517.94;;;20.82;46.65
53262;BME280;39658;51.090;-1.786;2023-02-03T12:36:39;102527.91;;;20.81;46.79
53262;BME280;39658;51.090;-1.786;2023-02-03T12:39:14;102527.91;;;20.81;46.78
53262;BME280;39658;51.090;-1.786;2023-02-03T12:41:48;102517.22;;;20.80;46.68
53262;BME280;39658;51.090;-1.786;2023-02-03T12:44:19;102522.81;;;20.78;46.67
53262;BME280;39658;51.090;-1.786;2023-02-03T12:46:51;102524.69;;;20.78;46.68
53262;BME280;39658;51.090;-1.786;2023-02-03T12:49:30;102517.59;;;20.77;46.62
53262;BME280;39658;51.090;-1.786;2023-02-03T12:52:04;102527.75;;;20.75;46.60
53262;BME280;39658;51.090;-1.786;2023-02-03T12:54:41;102525.03;;;20.75;46.75
53262;BME280;39658;51.090;-1.786;2023-02-03T12:57:16;102526.25;;;20.72;46.83
53262;BME280;39658;51.090;-1.786;2023-02-03T13:00:05;102528.09;;;20.72;46.81
53262;BME280;39658;51.090;-1.786;2023-02-03T13:02:55;102522.03;;;20.70;46.86
53262;BME280;39658;51.090;-1.786;2023-02-03T13:05:33;102524.91;;;20.68;46.79
53262;BME280;39658;51.090;-1.786;2023-02-03T13:08:10;102531.34;;;20.67;46.98